sensor_id;sensor_type;location;lat;lon;timestamp;temperature;humidity
2855;DHT22;1435;49.472;10.940;2023-05-07T00:00:44;14.70;99.90
2855;DHT22;1435;49.472;10.940;2023-05-07T00:05:46;14.70;99.90
2855;DHT22;1435;49.472;10.940;2023-05-07T00:10:48;14.70;99.90
2855;DHT22;1435;49.472;10.940;2023-05-07T00:15:51;14.70;99.90
2855;DHT22;1435;49.472;10.940;2023-05-07T00:20:53;14.70;99.90
2855;DHT22;1435;49.472;10.940;2023-05-07T00:25:55;14.70;99.90
2855;DHT22;1435;49.472;10.940;2023-05-07T00:30:58;14.70;99.90
2855;DHT22;1435;49.472;10.940;2023-05-07T00:36:00;14.70;99.90
2855;DHT22;1435;49.472;10.940;2023-05-07T00:41:02;14.70;99.90
2855;DHT22;1435;49.472;10.940;2023-05-07T00:46:05;14.70;99.90
2855;DHT22;1435;49.472;10.940;2023-05-07T00:51:07;14.80;99.90
2855;DHT22;1435;49.472;10.940;2023-05-07T00:56:08;14.70;99.90
2855;DHT22;1435;49.472;10.940;2023-05-07T01:01:12;14.70;99.90
2855;DHT22;1435;49.472;10.940;2023-05-07T01:06:14;14.70;99.90
2855;DHT22;1435;49.472;10.940;2023-05-07T01:11:17;14.80;99.90
2855;DHT22;1435;49.472;10.940;2023-05-07T01:16:21;14.80;99.90
2855;DHT22;1435;49.472;10.940;2023-05-07T01:21:25;14.80;99.90
2855;DHT22;1435;49.472;10.940;2023-05-07T01:26:28;14.80;99.90
2855;DHT22;1435;49.472;10.940;2023-05-07T01:31:30;14.80;99.90
2855;DHT22;1435;49.472;10.940;2023-05-07T01:36:34;14.80;99.90
2855;DHT22;1435;49.472;10.940;2023-05-07T01:41:38;14.80;99.90
2855;DHT22;1435;49.472;10.940;2023-05-07T01:46:40;14.80;99.90
2855;DHT22;1435;49.472;10.940;2023-05-07T01:51:43;14.70;99.90
2855;DHT22;1435;49.472;10.940;2023-05-07T01:56:46;14.80;99.90
2855;DHT22;1435;49.472;10.940;2023-05-07T02:01:48;14.80;99.90
2855;DHT22;1435;49.472;10.940;2023-05-07T02:06:50;14.80;99.90
2855;DHT22;1435;49.472;10.940;2023-05-07T02:11:53;14.70;99.90
2855;DHT22;1435;49.472;10.940;2023-05-07T02:16:54;14.70;99.90
2855;DHT22;1435;49.472;10.940;2023-05-07T02:21:56;14.70;99.90
2855;DHT22;1435;49.472;10.940;2023-05-07T02:26:59;14.60;99.90
2855;DHT22;1435;49.472;10.940;2023-05-07T02:32:01;14.60;99.90
2855;DHT22;1435;49.472;10.940;2023-05-07T02:37:02;14.60;99.90
2855;DHT22;1435;49.472;10.940;2023-05-07T02:42:05;14.60;99.90
2855;DHT22;1435;49.472;10.940;2023-05-07T02:47:07;14.50;99.90
2855;DHT22;1435;49.472;10.940;2023-05-07T02:52:09;14.50;99.90
2855;DHT22;1435;49.472;10.940;2023-05-07T02:57:12;14.40;99.90
2855;DHT22;1435;49.472;10.940;2023-05-07T03:02:15;14.40;99.90
2855;DHT22;1435;49.472;10.940;2023-05-07T03:07:16;14.30;99.90
2855;DHT22;1435;49.472;10.940;2023-05-07T03:12:19;14.30;99.90
2855;DHT22;1435;49.472;10.940;2023-05-07T03:17:21;14.10;99.90
2855;DHT22;1435;49.472;10.940;2023-05-07T03:22:23;14.10;99.90
2855;DHT22;1435;49.472;10.940;2023-05-07T03:27:26;14.00;99.90
2855;DHT22;1435;49.472;10.940;2023-05-07T03:32:28;13.90;99.90
2855;DHT22;1435;49.472;10.940;2023-05-07T03:37:30;13.80;99.90
2855;DHT22;1435;49.472;10.940;2023-05-07T03:42:34;13.70;99.90
2855;DHT22;1435;49.472;10.940;2023-05-07T03:47:36;13.60;99.90
2855;DHT22;1435;49.472;10.940;2023-05-07T03:52:39;13.50;99.90
2855;DHT22;1435;49.472;10.940;2023-05-07T03:57:42;13.40;99.90
2855;DHT22;1435;49.472;10.940;2023-05-07T04:02:45;13.40;99.90
2855;DHT22;1435;49.472;10.940;2023-05-07T04:07:47;13.40;99.90
2855;DHT22;1435;49.472;10.940;2023-05-07T04:12:50;13.30;99.90
2855;DHT22;1435;49.472;10.940;2023-05-07T04:17:51;13.30;99.90
2855;DHT22;1435;49.472;10.940;2023-05-07T04:22:53;13.30;99.90
2855;DHT22;1435;49.472;10.940;2023-05-07T04:27:57;13.30;99.90
2855;DHT22;1435;49.472;10.940;2023-05-07T04:32:59;13.20;99.90
2855;DHT22;1435;49.472;10.940;2023-05-07T04:38:00;13.20;99.90
2855;DHT22;1435;49.472;10.940;2023-05-07T04:43:03;13.20;99.90
2855;DHT22;1435;49.472;10.940;2023-05-07T04:48:05;13.20;99.90
2855;DHT22;1435;49.472;10.940;2023-05-07T04:53:07;13.30;99.90
2855;DHT22;1435;49.472;10.940;2023-05-07T04:58:10;13.40;99.90
2855;DHT22;1435;49.472;10.940;2023-05-07T05:03:12;13.40;99.90
2855;DHT22;1435;49.472;10.940;2023-05-07T05:08:14;13.40;99.90
2855;DHT22;1435;49.472;10.940;2023-05-07T05:13:17;13.40;99.90
2855;DHT22;1435;49.472;10.940;2023-05-07T05:18:18;13.50;99.90
2855;DHT22;1435;49.472;10.940;2023-05-07T05:23:20;13.50;99.90
2855;DHT22;1435;49.472;10.940;2023-05-07T05:28:23;13.60;99.90
2855;DHT22;1435;49.472;10.940;2023-05-07T05:33:25;13.70;99.90
2855;DHT22;1435;49.472;10.940;2023-05-07T05:38:27;13.70;99.90
2855;DHT22;1435;49.472;10.940;2023-05-07T05:43:30;13.80;99.90
2855;DHT22;1435;49.472;10.940;2023-05-07T05:48:32;13.90;99.90
2855;DHT22;1435;49.472;10.940;2023-05-07T05:53:33;14.00;99.90
2855;DHT22;1435;49.472;10.940;2023-05-07T05:58:37;14.10;99.90
2855;DHT22;1435;49.472;10.940;2023-05-07T06:03:38;14.20;99.90
2855;DHT22;1435;49.472;10.940;2023-05-07T06:08:40;14.20;99.90
2855;DHT22;1435;49.472;10.940;2023-05-07T06:13:43;14.30;99.90
2855;DHT22;1435;49.472;10.940;2023-05-07T06:18:45;14.30;99.90
2855;DHT22;1435;49.472;10.940;2023-05-07T06:23:47;14.40;99.90
2855;DHT22;1435;49.472;10.940;2023-05-07T06:28:50;14.40;99.90
2855;DHT22;1435;49.472;10.940;2023-05-07T06:33:52;14.50;99.90
2855;DHT22;1435;49.472;10.940;2023-05-07T06:38:54;14.60;99.90
2855;DHT22;1435;49.472;10.940;2023-05-07T06:43:57;14.60;99.90
2855;DHT22;1435;49.472;10.940;2023-05-07T06:48:58;14.70;99.90
2855;DHT22;1435;49.472;10.940;2023-05-07T06:54:00;14.80;99.90
2855;DHT22;1435;49.472;10.940;2023-05-07T06:59:03;14.90;99.90
2855;DHT22;1435;49.472;10.940;2023-05-07T07:04:05;15.00;99.90
2855;DHT22;1435;49.472;10.940;2023-05-07T07:09:06;15.10;99.90
2855;DHT22;1435;49.472;10.940;2023-05-07T07:14:10;15.20;99.90
2855;DHT22;1435;49.472;10.940;2023-05-07T07:19:11;15.30;99.90
2855;DHT22;1435;49.472;10.940;2023-05-07T07:24:15;15.40;99.90
2855;DHT22;1435;49.472;10.940;2023-05-07T07:29:22;15.60;99.90
2855;DHT22;1435;49.472;10.940;2023-05-07T07:34:27;15.70;99.90
2855;DHT22;1435;49.472;10.940;2023-05-07T07:39:30;15.80;99.90
2855;DHT22;1435;49.472;10.940;2023-05-07T07:44:33;15.90;99.90
2855;DHT22;1435;49.472;10.940;2023-05-07T07:49:35;15.90;99.90
2855;DHT22;1435;49.472;10.940;2023-05-07T07:54:37;16.00;99.90
2855;DHT22;1435;49.472;10.940;2023-05-07T07:59:40;16.10;99.90
2855;DHT22;1435;49.472;10.940;2023-05-07T08:04:43;16.20;99.90
2855;DHT22;1435;49.472;10.940;2023-05-07T08:09:45;16.30;99.90
2855;DHT22;1435;49.472;10.940;2023-05-07T08:14:48;16.40;99.90
2855;DHT22;1435;49.472;10.940;2023-05-07T08:19:50;16.50;99.90
2855;DHT22;1435;49.472;10.940;2023-05-07T08:24:52;16.60;99.90
2855;DHT22;1435;49.472;10.940;2023-05-07T08:29:55;16.70;99.90
2855;DHT22;1435;49.472;10.940;2023-05-07T08:34:57;16.80;99.90
2855;DHT22;1435;49.472;10.940;2023-05-07T08:39:58;16.90;99.90
2855;DHT22;1435;49.472;10.940;2023-05-07T08:45:03;17.00;99.90
2855;DHT22;1435;49.472;10.940;2023-05-07T08:50:07;17.20;99.90
2855;DHT22;1435;49.472;10.940;2023-05-07T08:55:09;17.30;99.90
2855;DHT22;1435;49.472;10.940;2023-05-07T09:00:14;17.40;99.90
2855;DHT22;1435;49.472;10.940;2023-05-07T09:05:15;17.60;99.90
2855;DHT22;1435;49.472;10.940;2023-05-07T09:10:17;17.80;99.90
2855;DHT22;1435;49.472;10.940;2023-05-07T09:15:20;17.90;99.90
2855;DHT22;1435;49.472;10.940;2023-05-07T09:20:22;18.00;99.90
2855;DHT22;1435;49.472;10.940;2023-05-07T09:25:31;18.10;99.90
2855;DHT22;1435;49.472;10.940;2023-05-07T09:30:34;18.20;99.90
2855;DHT22;1435;49.472;10.940;2023-05-07T09:35:37;18.40;99.90
2855;DHT22;1435;49.472;10.940;2023-05-07T09:40:39;18.50;99.90
2855;DHT22;1435;49.472;10.940;2023-05-07T09:45:42;18.60;99.90
2855;DHT22;1435;49.472;10.940;2023-05-07T09:50:48;18.70;99.90
2855;DHT22;1435;49.472;10.940;2023-05-07T09:55:51;18.90;99.90
2855;DHT22;1435;49.472;10.940;2023-05-07T10:00:54;19.00;99.90
2855;DHT22;1435;49.472;10.940;2023-05-07T10:05:58;19.10;99.90
2855;DHT22;1435;49.472;10.940;2023-05-07T10:11:01;19.20;99.90
2855;DHT22;1435;49.472;10.940;2023-05-07T10:16:05;19.40;99.90
2855;DHT22;1435;49.472;10.940;2023-05-07T10:21:08;19.50;99.90
2855;DHT22;1435;49.472;10.940;2023-05-07T10:26:13;19.70;99.90
2855;DHT22;1435;49.472;10.940;2023-05-07T10:31:38;19.80;99.90
2855;DHT22;1435;49.472;10.940;2023-05-07T10:36:43;20.00;99.90
2855;DHT22;1435;49.472;10.940;2023-05-07T10:41:45;20.20;99.90
2855;DHT22;1435;49.472;10.940;2023-05-07T10:47:05;20.30;99.90
2855;DHT22;1435;49.472;10.940;2023-05-07T10:52:15;20.40;99.90
2855;DHT22;1435;49.472;10.940;2023-05-07T10:57:35;20.50;99.90
2855;DHT22;1435;49.472;10.940;2023-05-07T11:03:06;20.50;99.90
2855;DHT22;1435;49.472;10.940;2023-05-07T11:08:08;20.50;99.90
2855;DHT22;1435;49.472;10.940;2023-05-07T11:13:10;20.50;99.90
2855;DHT22;1435;49.472;10.940;2023-05-07T11:18:14;20.50;99.90
2855;DHT22;1435;49.472;10.940;2023-05-07T11:23:56;20.50;99.90
2855;DHT22;1435;49.472;10.940;2023-05-07T11:29:01;20.60;99.90
2855;DHT22;1435;49.472;10.940;2023-05-07T11:34:05;20.70;99.90
2855;DHT22;1435;49.472;10.940;2023-05-07T11:39:23;20.80;99.90
2855;DHT22;1435;49.472;10.940;2023-05-07T11:44:24;21.00;99.90
2855;DHT22;1435;49.472;10.940;2023-05-07T11:49:28;21.20;99.90
2855;DHT22;1435;49.472;10.940;2023-05-07T11:54:35;21.30;99.90
2855;DHT22;1435;49.472;10.940;2023-05-07T11:59:40;21.50;99.90
2855;DHT22;1435;49.472;10.940;2023-05-07T12:04:43;21.60;99.90
2855;DHT22;1435;49.472;10.940;2023-05-07T12:09:45;21.70;99.90
2855;DHT22;1435;49.472;10.940;2023-05-07T12:14:50;21.70;99.90
2855;DHT22;1435;49.472;10.940;2023-05-07T12:19:53;21.80;99.90
2855;DHT22;1435;49.472;10.940;2023-05-07T12:24:57;21.90;99.90
2855;DHT22;1435;49.472;10.940;2023-05-07T12:29:59;22.00;99.90
2855;DHT22;1435;49.472;10.940;2023-05-07T12:35:02;22.10;99.90
2855;DHT22;1435;49.472;10.940;2023-05-07T12:40:05;22.20;99.90
2855;DHT22;1435;49.472;10.940;2023-05-07T12:45:08;22.30;99.90
2855;DHT22;1435;49.472;10.940;2023-05-07T12:50:12;22.40;99.90
2855;DHT22;1435;49.472;10.940;2023-05-07T12:55:16;22.50;99.90
2855;DHT22;1435;49.472;10.940;2023-05-07T13:00:17;22.60;99.90
2855;DHT22;1435;49.472;10.940;2023-05-07T13:05:21;22.60;99.90
2855;DHT22;1435;49.472;10.940;2023-05-07T13:10:23;22.60;99.90
2855;DHT22;1435;49.472;10.940;2023-05-07T13:15:25;22.50;99.90
2855;DHT22;1435;49.472;10.940;2023-05-07T13:20:28;22.50;99.90
2855;DHT22;1435;49.472;10.940;2023-05-07T13:25:30;22.40;99.90
2855;DHT22;1435;49.472;10.940;2023-05-07T13:30:32;22.20;99.90
2855;DHT22;1435;49.472;10.940;2023-05-07T13:35:35;22.30;99.90
2855;DHT22;1435;49.472;10.940;2023-05-07T13:40:37;22.30;99.90
2855;DHT22;1435;49.472;10.940;2023-05-07T13:45:38;22.30;99.90
2855;DHT22;1435;49.472;10.940;2023-05-07T13:50:41;22.30;99.90
2855;DHT22;1435;49.472;10.940;2023-05-07T13:55:43;22.30;99.90
2855;DHT22;1435;49.472;10.940;2023-05-07T14:00:45;22.30;99.90
2855;DHT22;1435;49.472;10.940;2023-05-07T14:05:48;22.30;99.90
2855;DHT22;1435;49.472;10.940;2023-05-07T14:10:49;22.40;99.90
2855;DHT22;1435;49.472;10.940;2023-05-07T14:15:51;22.70;99.90
2855;DHT22;1435;49.472;10.940;2023-05-07T14:20:54;23.00;99.90
2855;DHT22;1435;49.472;10.940;2023-05-07T14:25:56;23.20;99.90
2855;DHT22;1435;49.472;10.940;2023-05-07T14:30:58;23.20;99.90
2855;DHT22;1435;49.472;10.940;2023-05-07T14:36:01;23.30;99.90
2855;DHT22;1435;49.472;10.940;2023-05-07T14:41:04;23.40;99.60
2855;DHT22;1435;49.472;10.940;2023-05-07T14:46:05;23.40;98.60
2855;DHT22;1435;49.472;10.940;2023-05-07T14:51:08;23.40;99.00
2855;DHT22;1435;49.472;10.940;2023-05-07T14:56:10;23.30;98.50
2855;DHT22;1435;49.472;10.940;2023-05-07T15:01:12;23.30;98.70
2855;DHT22;1435;49.472;10.940;2023-05-07T15:06:15;23.20;98.80
2855;DHT22;1435;49.472;10.940;2023-05-07T15:11:16;23.20;98.60
2855;DHT22;1435;49.472;10.940;2023-05-07T15:16:18;23.00;98.10
2855;DHT22;1435;49.472;10.940;2023-05-07T15:21:22;23.00;97.90
2855;DHT22;1435;49.472;10.940;2023-05-07T15:26:23;22.90;98.00
2855;DHT22;1435;49.472;10.940;2023-05-07T15:31:25;22.80;97.70
2855;DHT22;1435;49.472;10.940;2023-05-07T15:36:28;22.70;97.70
2855;DHT22;1435;49.472;10.940;2023-05-07T15:41:30;22.60;97.00
2855;DHT22;1435;49.472;10.940;2023-05-07T15:46:32;22.40;97.40
2855;DHT22;1435;49.472;10.940;2023-05-07T15:51:35;22.50;97.00
2855;DHT22;1435;49.472;10.940;2023-05-07T15:56:37;22.30;98.00
2855;DHT22;1435;49.472;10.940;2023-05-07T16:01:39;22.30;97.70
2855;DHT22;1435;49.472;10.940;2023-05-07T16:06:43;22.20;98.40
2855;DHT22;1435;49.472;10.940;2023-05-07T16:11:46;22.00;98.30
2855;DHT22;1435;49.472;10.940;2023-05-07T16:16:48;22.10;98.20
2855;DHT22;1435;49.472;10.940;2023-05-07T16:21:51;22.10;97.90
2855;DHT22;1435;49.472;10.940;2023-05-07T16:26:53;22.10;98.10
2855;DHT22;1435;49.472;10.940;2023-05-07T16:31:56;22.10;98.60
2855;DHT22;1435;49.472;10.940;2023-05-07T16:36:59;22.10;99.20
2855;DHT22;1435;49.472;10.940;2023-05-07T16:42:01;21.90;98.50
2855;DHT22;1435;49.472;10.940;2023-05-07T16:47:03;21.90;98.40
2855;DHT22;1435;49.472;10.940;2023-05-07T16:52:06;21.90;97.70
2855;DHT22;1435;49.472;10.940;2023-05-07T16:57:07;21.90;97.80
2855;DHT22;1435;49.472;10.940;2023-05-07T17:02:09;21.90;97.90
2855;DHT22;1435;49.472;10.940;2023-05-07T17:07:12;21.80;97.20
2855;DHT22;1435;49.472;10.940;2023-05-07T17:12:15;21.80;96.90
2855;DHT22;1435;49.472;10.940;2023-05-07T17:17:17;21.60;97.70
2855;DHT22;1435;49.472;10.940;2023-05-07T17:22:20;21.70;98.20
2855;DHT22;1435;49.472;10.940;2023-05-07T17:27:22;21.60;97.70
2855;DHT22;1435;49.472;10.940;2023-05-07T17:32:24;21.70;97.50
2855;DHT22;1435;49.472;10.940;2023-05-07T17:37:27;21.60;96.60
2855;DHT22;1435;49.472;10.940;2023-05-07T17:42:28;21.50;96.40
2855;DHT22;1435;49.472;10.940;2023-05-07T17:47:31;21.50;95.70
2855;DHT22;1435;49.472;10.940;2023-05-07T17:52:34;21.20;95.80
2855;DHT22;1435;49.472;10.940;2023-05-07T17:57:36;21.20;95.90
2855;DHT22;1435;49.472;10.940;2023-05-07T18:02:38;21.10;95.80
2855;DHT22;1435;49.472;10.940;2023-05-07T18:07:42;21.00;96.40
2855;DHT22;1435;49.472;10.940;2023-05-07T18:12:44;20.90;96.20
2855;DHT22;1435;49.472;10.940;2023-05-07T18:17:45;20.80;96.30
2855;DHT22;1435;49.472;10.940;2023-05-07T18:22:49;20.80;96.40
2855;DHT22;1435;49.472;10.940;2023-05-07T18:27:50;20.70;96.60
2855;DHT22;1435;49.472;10.940;2023-05-07T18:32:52;20.40;95.90
2855;DHT22;1435;49.472;10.940;2023-05-07T18:37:55;20.30;96.10
2855;DHT22;1435;49.472;10.940;2023-05-07T18:42:57;20.20;96.40
2855;DHT22;1435;49.472;10.940;2023-05-07T18:48:00;20.20;96.40
2855;DHT22;1435;49.472;10.940;2023-05-07T18:53:03;20.10;96.10
2855;DHT22;1435;49.472;10.940;2023-05-07T18:58:04;20.20;96.00
2855;DHT22;1435;49.472;10.940;2023-05-07T19:03:06;20.20;96.40
2855;DHT22;1435;49.472;10.940;2023-05-07T19:08:09;20.10;96.60
2855;DHT22;1435;49.472;10.940;2023-05-07T19:13:11;20.10;96.50
2855;DHT22;1435;49.472;10.940;2023-05-07T19:18:13;20.10;97.10
2855;DHT22;1435;49.472;10.940;2023-05-07T19:23:16;19.90;96.50
2855;DHT22;1435;49.472;10.940;2023-05-07T19:28:17;19.90;96.70
2855;DHT22;1435;49.472;10.940;2023-05-07T19:33:19;19.60;96.60
2855;DHT22;1435;49.472;10.940;2023-05-07T19:38:22;19.70;97.00
2855;DHT22;1435;49.472;10.940;2023-05-07T19:43:24;19.70;96.90
2855;DHT22;1435;49.472;10.940;2023-05-07T19:48:26;19.70;97.00
2855;DHT22;1435;49.472;10.940;2023-05-07T19:53:29;19.70;96.80
2855;DHT22;1435;49.472;10.940;2023-05-07T19:58:30;19.60;96.40
2855;DHT22;1435;49.472;10.940;2023-05-07T20:03:33;19.30;96.70
2855;DHT22;1435;49.472;10.940;2023-05-07T20:08:36;19.30;96.80
2855;DHT22;1435;49.472;10.940;2023-05-07T20:13:38;19.10;97.20
2855;DHT22;1435;49.472;10.940;2023-05-07T20:18:40;19.20;97.50
2855;DHT22;1435;49.472;10.940;2023-05-07T20:23:43;19.20;97.80
2855;DHT22;1435;49.472;10.940;2023-05-07T20:28:44;19.20;97.80
2855;DHT22;1435;49.472;10.940;2023-05-07T20:33:46;19.00;98.20
2855;DHT22;1435;49.472;10.940;2023-05-07T20:38:49;19.00;98.20
2855;DHT22;1435;49.472;10.940;2023-05-07T20:43:51;18.90;98.50
2855;DHT22;1435;49.472;10.940;2023-05-07T20:48:53;18.70;98.60
2855;DHT22;1435;49.472;10.940;2023-05-07T20:53:57;18.70;98.90
2855;DHT22;1435;49.472;10.940;2023-05-07T20:58:59;18.70;98.80
2855;DHT22;1435;49.472;10.940;2023-05-07T21:04:01;18.60;99.20
2855;DHT22;1435;49.472;10.940;2023-05-07T21:09:05;18.60;98.90
2855;DHT22;1435;49.472;10.940;2023-05-07T21:14:07;18.50;98.80
2855;DHT22;1435;49.472;10.940;2023-05-07T21:19:09;18.50;99.20
2855;DHT22;1435;49.472;10.940;2023-05-07T21:24:12;18.50;98.70
2855;DHT22;1435;49.472;10.940;2023-05-07T21:29:13;18.30;98.60
2855;DHT22;1435;49.472;10.940;2023-05-07T21:34:15;18.20;98.90
2855;DHT22;1435;49.472;10.940;2023-05-07T21:39:19;18.00;99.00
2855;DHT22;1435;49.472;10.940;2023-05-07T21:44:21;17.80;99.30
2855;DHT22;1435;49.472;10.940;2023-05-07T21:49:23;17.90;99.20
2855;DHT22;1435;49.472;10.940;2023-05-07T21:54:27;17.80;99.30
2855;DHT22;1435;49.472;10.940;2023-05-07T21:59:29;17.90;99.30
2855;DHT22;1435;49.472;10.940;2023-05-07T22:04:30;17.90;99.20
2855;DHT22;1435;49.472;10.940;2023-05-07T22:09:34;17.90;99.30
2855;DHT22;1435;49.472;10.940;2023-05-07T22:14:35;17.80;99.40
2855;DHT22;1435;49.472;10.940;2023-05-07T22:19:37;17.80;99.60
2855;DHT22;1435;49.472;10.940;2023-05-07T22:24:41;17.60;99.60
2855;DHT22;1435;49.472;10.940;2023-05-07T22:29:43;17.60;99.80
2855;DHT22;1435;49.472;10.940;2023-05-07T22:34:44;17.60;99.60
2855;DHT22;1435;49.472;10.940;2023-05-07T22:39:47;17.50;99.90
2855;DHT22;1435;49.472;10.940;2023-05-07T22:44:51;17.50;99.70
2855;DHT22;1435;49.472;10.940;2023-05-07T22:49:52;17.50;99.80
2855;DHT22;1435;49.472;10.940;2023-05-07T22:54:55;17.40;99.90
2855;DHT22;1435;49.472;10.940;2023-05-07T22:59:57;17.40;99.90
2855;DHT22;1435;49.472;10.940;2023-05-07T23:04:59;17.30;99.90
2855;DHT22;1435;49.472;10.940;2023-05-07T23:10:02;17.30;99.90
2855;DHT22;1435;49.472;10.940;2023-05-07T23:15:05;17.10;99.90
2855;DHT22;1435;49.472;10.940;2023-05-07T23:20:08;17.10;99.90
2855;DHT22;1435;49.472;10.940;2023-05-07T23:25:11;17.00;99.90
2855;DHT22;1435;49.472;10.940;2023-05-07T23:30:13;17.00;99.90
2855;DHT22;1435;49.472;10.940;2023-05-07T23:35:15;16.90;99.90
2855;DHT22;1435;49.472;10.940;2023-05-07T23:40:18;16.80;99.90
2855;DHT22;1435;49.472;10.940;2023-05-07T23:45:19;16.80;99.90
2855;DHT22;1435;49.472;10.940;2023-05-07T23:50:21;16.70;99.90
2855;DHT22;1435;49.472;10.940;2023-05-07T23:55:24;16.60;99.90
